createdAt,value
2023-02-11T00:02:29.636Z,16.10
2023-02-11T00:05:33.821Z,19.77
2023-02-11T00:08:36.537Z,17.67
2023-02-11T00:11:41.463Z,15.03
2023-02-11T00:14:51.657Z,16.50
2023-02-11T00:17:57.321Z,16.73
2023-02-11T00:21:14.535Z,18.97
2023-02-11T00:35:14.015Z,20.67
2023-02-11T00:42:05.112Z,21.80
2023-02-11T00:45:11.094Z,23.27
2023-02-11T00:51:46.542Z,19.53
2023-02-11T00:54:56.326Z,23.37
2023-02-11T00:58:01.352Z,24.10
2023-02-11T01:01:09.435Z,21.10
2023-02-11T01:04:16.179Z,19.40
2023-02-11T01:07:24.309Z,21.03
2023-02-11T01:10:40.822Z,21.93
2023-02-11T01:13:46.090Z,17.90
2023-02-11T01:16:51.034Z,27.40
2023-02-11T01:19:59.296Z,22.17
2023-02-11T01:26:34.709Z,21.73
2023-02-11T01:45:38.687Z,17.57
2023-02-11T01:53:29.602Z,19.57
2023-02-11T01:57:17.735Z,20.93
2023-02-11T02:08:45.545Z,20.63
2023-02-11T02:11:48.493Z,18.73
2023-02-11T02:14:51.301Z,20.83
2023-02-11T02:18:11.093Z,19.63
2023-02-11T02:22:04.366Z,23.53
2023-02-11T02:25:26.125Z,16.43
2023-02-11T02:28:56.410Z,18.27
2023-02-11T02:32:18.545Z,20.10
2023-02-11T02:35:30.625Z,19.70
2023-02-11T02:38:38.774Z,18.93
2023-02-11T02:41:43.272Z,18.53
2023-02-11T02:44:50.222Z,24.07
2023-02-11T02:47:54.393Z,22.33
2023-02-11T02:51:05.655Z,19.50
2023-02-11T02:54:37.664Z,25.00
2023-02-11T02:57:55.736Z,21.13
2023-02-11T03:01:05.613Z,19.30
2023-02-11T03:04:18.489Z,21.07
2023-02-11T03:07:28.749Z,22.50
2023-02-11T03:10:34.150Z,19.43
2023-02-11T03:13:39.077Z,21.13
2023-02-11T03:16:42.496Z,18.23
2023-02-11T03:19:49.187Z,20.33
2023-02-11T03:22:56.781Z,20.63
2023-02-11T03:26:06.219Z,19.07
2023-02-11T03:29:17.841Z,19.10
2023-02-11T03:32:26.288Z,17.40
2023-02-11T03:35:36.986Z,20.40
2023-02-11T03:38:46.383Z,15.43
2023-02-11T03:41:50.905Z,20.33
2023-02-11T03:44:58.326Z,21.90
2023-02-11T03:48:03.714Z,15.10
2023-02-11T03:51:10.517Z,20.53
2023-02-11T03:54:19.316Z,23.43
2023-02-11T03:57:22.134Z,17.80
2023-02-11T04:00:31.292Z,20.03
2023-02-11T04:03:34.086Z,17.20
2023-02-11T04:06:38.276Z,18.63
2023-02-11T04:09:40.957Z,19.13
2023-02-11T04:12:43.942Z,19.93
2023-02-11T04:15:48.820Z,20.73
2023-02-11T04:18:51.764Z,20.63
2023-02-11T04:21:56.131Z,17.37
2023-02-11T04:24:58.819Z,21.53
2023-02-11T04:28:01.631Z,19.30
2023-02-11T04:31:04.536Z,15.40
2023-02-11T04:34:07.309Z,22.13
2023-02-11T04:37:11.267Z,17.97
2023-02-11T04:40:14.114Z,19.50
2023-02-11T04:43:17.360Z,20.37
2023-02-11T04:46:20.061Z,21.30
2023-02-11T04:49:22.842Z,20.73
2023-02-11T04:52:27.350Z,19.83
2023-02-11T04:55:30.055Z,20.27
2023-02-11T04:58:32.691Z,20.23
2023-02-11T05:01:35.861Z,21.73
2023-02-11T05:04:38.706Z,20.53
2023-02-11T05:07:42.725Z,22.90
2023-02-11T05:10:47.401Z,21.17
2023-02-11T05:13:50.257Z,21.77
2023-02-11T05:16:53.009Z,22.20
2023-02-11T05:19:55.644Z,18.40
2023-02-11T05:22:59.677Z,23.80
2023-02-11T05:26:02.681Z,26.70
2023-02-11T05:29:05.326Z,24.07
2023-02-11T05:32:09.014Z,23.43
2023-02-11T05:35:11.647Z,25.13
2023-02-11T05:38:15.723Z,21.23
2023-02-11T05:41:18.432Z,20.40
2023-02-11T05:44:21.078Z,19.33
2023-02-11T05:47:23.955Z,20.83
2023-02-11T05:50:27.422Z,22.90
2023-02-11T05:53:31.411Z,19.40
2023-02-11T05:56:34.156Z,24.23
2023-02-11T05:59:36.812Z,18.27
2023-02-11T06:02:39.584Z,21.07
2023-02-11T06:05:43.747Z,18.50
2023-02-11T06:08:47.793Z,19.90
2023-02-11T06:11:50.519Z,20.73
2023-02-11T06:14:53.229Z,24.70
2023-02-11T06:17:55.916Z,23.43
2023-02-11T06:21:01.003Z,20.03
2023-02-11T06:24:05.633Z,22.07
2023-02-11T06:27:08.359Z,23.87
2023-02-11T06:30:12.353Z,20.30
2023-02-11T06:33:15.057Z,23.60
2023-02-11T06:36:21.417Z,17.63
2023-02-11T06:39:25.832Z,20.63
2023-02-11T06:42:28.548Z,20.90
2023-02-11T06:45:31.247Z,20.70
2023-02-11T06:48:34.713Z,19.70
2023-02-11T06:51:37.752Z,24.33
2023-02-11T06:54:42.001Z,21.07
2023-02-11T06:57:44.665Z,23.27
2023-02-11T07:00:47.307Z,22.70
2023-02-11T07:03:50.306Z,26.10
2023-02-11T07:06:52.990Z,19.90
2023-02-11T07:09:57.025Z,20.67
2023-02-11T07:12:59.702Z,18.57
2023-02-11T07:16:05.938Z,23.30
2023-02-11T07:19:08.648Z,23.13
2023-02-11T07:22:11.292Z,22.10
2023-02-11T07:25:15.446Z,25.03
2023-02-11T07:28:18.185Z,21.17
2023-02-11T07:31:22.680Z,17.83
2023-02-11T07:34:25.468Z,19.97
2023-02-11T07:37:28.491Z,19.77
2023-02-11T07:40:32.837Z,21.50
2023-02-11T07:43:36.707Z,29.63
2023-02-11T07:46:43.016Z,25.33
2023-02-11T07:49:46.436Z,22.63
2023-02-11T07:52:49.273Z,22.47
2023-02-11T07:55:53.441Z,21.70
2023-02-11T07:58:58.036Z,21.37
2023-02-11T08:02:00.985Z,27.27
2023-02-11T08:05:03.677Z,23.97
2023-02-11T08:08:06.420Z,26.13
2023-02-11T08:11:12.718Z,23.97
2023-02-11T08:14:15.411Z,24.77
2023-02-11T08:17:18.235Z,21.03
2023-02-11T08:20:21.322Z,22.97
2023-02-11T08:23:24.408Z,23.33
2023-02-11T08:26:31.696Z,24.37
2023-02-11T08:29:34.531Z,27.87
2023-02-11T08:32:37.438Z,19.77
2023-02-11T08:35:40.567Z,18.33
2023-02-11T08:38:44.011Z,18.67
2023-02-11T08:41:49.447Z,19.13
2023-02-11T08:44:52.132Z,21.10
2023-02-11T08:47:54.946Z,19.87
2023-02-11T08:50:58.444Z,23.47
2023-02-11T08:54:01.949Z,20.10
2023-02-11T08:57:06.362Z,25.07
2023-02-11T09:00:11.153Z,18.97
2023-02-11T09:03:14.191Z,21.50
2023-02-11T09:06:18.587Z,26.73
2023-02-11T09:09:21.391Z,18.43
2023-02-11T09:12:25.513Z,59.77
2023-02-11T09:15:28.297Z,23.90
2023-02-11T09:18:31.147Z,20.73
2023-02-11T09:21:34.024Z,16.73
2023-02-11T09:24:37.258Z,19.00
2023-02-11T09:27:41.302Z,20.67
2023-02-11T09:30:44.008Z,23.27
2023-02-11T09:33:49.838Z,27.80
2023-02-11T09:36:52.541Z,19.00
2023-02-11T09:39:55.171Z,20.70
2023-02-11T09:43:04.573Z,19.07
2023-02-11T09:46:07.530Z,19.47
2023-02-11T09:49:22.478Z,19.50
2023-02-11T09:52:34.581Z,18.00
2023-02-11T09:55:42.684Z,13.70
2023-02-11T09:58:47.153Z,12.13
2023-02-11T10:01:54.636Z,12.53
2023-02-11T10:05:18.499Z,8.73
2023-02-11T10:08:31.700Z,9.00
2023-02-11T10:11:43.090Z,7.53
2023-02-11T10:15:05.277Z,9.02
2023-02-11T10:18:38.250Z,9.40
2023-02-11T10:21:52.832Z,7.35
2023-02-11T10:24:58.322Z,6.85
2023-02-11T10:28:11.347Z,5.22
2023-02-11T10:31:19.501Z,4.97
2023-02-11T10:34:22.491Z,3.63
2023-02-11T10:37:25.144Z,4.60
2023-02-11T10:40:29.772Z,4.63
2023-02-11T10:43:33.777Z,4.95
2023-02-11T10:46:40.206Z,3.75
2023-02-11T10:49:44.501Z,5.13
2023-02-11T10:52:47.206Z,5.10
2023-02-11T10:55:55.345Z,5.30
2023-02-11T10:59:02.754Z,4.82
2023-02-11T11:02:22.095Z,4.70
2023-02-11T11:05:31.407Z,5.97
2023-02-11T11:08:43.696Z,4.63
2023-02-11T11:11:53.950Z,4.30
2023-02-11T11:14:57.843Z,5.00
2023-02-11T11:18:23.068Z,5.57
2023-02-11T11:21:29.807Z,4.97
2023-02-11T11:24:35.256Z,4.20
2023-02-11T11:27:37.971Z,5.45
2023-02-11T11:30:43.767Z,7.35
2023-02-11T11:33:49.379Z,5.28
2023-02-11T11:36:52.773Z,4.97
2023-02-11T11:39:59.068Z,4.90
2023-02-11T11:43:23.033Z,4.93
2023-02-11T11:46:31.721Z,8.38
2023-02-11T11:49:40.465Z,5.93
2023-02-11T11:52:48.997Z,5.82
2023-02-11T11:56:00.769Z,5.55
2023-02-11T11:59:08.132Z,6.65
2023-02-11T12:02:36.480Z,10.48
2023-02-11T12:05:47.986Z,7.50
2023-02-11T12:08:59.517Z,5.80
2023-02-11T12:12:24.174Z,7.63
2023-02-11T12:15:35.539Z,6.90
2023-02-11T12:18:54.620Z,5.38
2023-02-11T12:22:06.649Z,5.93
2023-02-11T12:25:27.122Z,6.45
2023-02-11T12:28:39.626Z,7.20
2023-02-11T12:31:57.520Z,7.03
2023-02-11T12:35:29.049Z,7.00
2023-02-11T12:38:53.932Z,6.40
2023-02-11T12:42:33.564Z,5.10
2023-02-11T12:46:10.800Z,5.70
2023-02-11T12:49:38.112Z,5.47
2023-02-11T12:52:59.419Z,8.60
2023-02-11T12:56:09.888Z,13.63
2023-02-11T12:59:19.347Z,12.23
2023-02-11T13:02:31.641Z,8.13
2023-02-11T13:05:41.944Z,12.95
2023-02-11T13:08:48.823Z,11.35
2023-02-11T13:11:58.312Z,11.95
2023-02-11T13:15:06.279Z,16.25
2023-02-11T13:18:20.459Z,14.48
2023-02-11T13:21:35.691Z,14.48
2023-02-11T13:24:45.267Z,15.68
2023-02-11T13:27:58.978Z,11.88
2023-02-11T13:31:03.582Z,12.80
2023-02-11T13:34:24.778Z,12.63
2023-02-11T13:37:33.880Z,13.02
2023-02-11T13:40:39.456Z,15.48
2023-02-11T13:43:44.640Z,13.15
2023-02-11T13:47:08.657Z,14.25
2023-02-11T13:50:24.885Z,13.43
2023-02-11T13:53:28.876Z,13.15
2023-02-11T13:56:33.726Z,13.15
2023-02-11T13:59:49.319Z,13.88
2023-02-11T14:03:39.071Z,10.80
2023-02-11T14:07:43.147Z,14.10
2023-02-11T14:10:53.971Z,12.05
2023-02-11T14:14:15.912Z,13.85
2023-02-11T14:17:28.415Z,12.00
2023-02-11T14:20:43.267Z,11.02
2023-02-11T14:23:46.838Z,11.48
2023-02-11T14:26:55.034Z,13.13
2023-02-11T14:30:21.116Z,12.43
2023-02-11T14:33:52.096Z,12.65
2023-02-11T14:37:08.114Z,12.93
2023-02-11T14:40:20.120Z,14.48
2023-02-11T14:43:29.106Z,12.68
2023-02-11T14:46:34.050Z,12.98
2023-02-11T14:49:41.458Z,14.73
2023-02-11T14:52:45.287Z,14.25
2023-02-11T14:55:50.409Z,12.15
2023-02-11T14:58:54.939Z,14.93
2023-02-11T15:01:58.618Z,11.37
2023-02-11T15:05:26.044Z,11.37
2023-02-11T15:08:30.671Z,12.20
2023-02-11T15:11:39.742Z,12.47
2023-02-11T15:14:48.860Z,13.33
2023-02-11T15:17:51.980Z,14.23
2023-02-11T15:20:56.216Z,12.43
2023-02-11T15:24:01.610Z,12.53
2023-02-11T15:27:12.835Z,15.10
2023-02-11T15:30:29.853Z,14.70
2023-02-11T15:33:33.936Z,12.93
2023-02-11T15:36:39.303Z,11.53
2023-02-11T15:39:43.247Z,16.00
2023-02-11T15:42:57.411Z,13.83
2023-02-11T15:46:02.834Z,12.03
2023-02-11T15:49:08.018Z,14.13
2023-02-11T15:52:17.411Z,16.07
2023-02-11T15:55:21.601Z,14.27
2023-02-11T15:58:25.166Z,12.73
2023-02-11T16:01:34.021Z,14.70
2023-02-11T16:04:37.768Z,13.73
2023-02-11T16:07:49.643Z,13.03
2023-02-11T16:10:58.631Z,16.53
2023-02-11T16:14:05.806Z,14.87
2023-02-11T16:17:13.063Z,16.70
2023-02-11T16:20:20.098Z,14.70
2023-02-11T16:23:26.638Z,14.80
2023-02-11T16:26:33.472Z,14.37
2023-02-11T16:29:38.153Z,12.07
2023-02-11T16:32:40.880Z,14.37
2023-02-11T16:35:47.472Z,15.53
2023-02-11T16:38:51.512Z,12.50
2023-02-11T16:41:54.344Z,15.40
2023-02-11T16:44:56.976Z,15.47
2023-02-11T16:48:00.101Z,18.57
2023-02-11T16:51:03.422Z,16.83
2023-02-11T16:54:08.016Z,19.97
2023-02-11T16:57:15.334Z,15.20
2023-02-11T17:00:19.095Z,13.93
2023-02-11T17:03:24.419Z,16.77
2023-02-11T17:06:28.823Z,13.30
2023-02-11T17:09:32.841Z,14.40
2023-02-11T17:12:35.535Z,14.80
2023-02-11T17:15:38.644Z,14.30
2023-02-11T17:18:41.305Z,16.20
2023-02-11T17:21:44.539Z,18.97
2023-02-11T17:24:48.622Z,18.40
2023-02-11T17:27:52.882Z,16.10
2023-02-11T17:30:55.765Z,18.03
2023-02-11T17:33:58.441Z,15.83
2023-02-11T17:37:03.121Z,20.20
2023-02-11T17:40:09.167Z,19.17
2023-02-11T17:43:11.855Z,19.40
2023-02-11T17:46:14.977Z,17.30
2023-02-11T17:49:17.757Z,17.83
2023-02-11T17:52:21.523Z,17.67
2023-02-11T17:55:25.583Z,14.90
2023-02-11T17:58:28.240Z,21.77
2023-02-11T18:01:32.702Z,20.80
2023-02-11T18:04:36.101Z,16.83
2023-02-11T18:07:38.783Z,20.60
2023-02-11T18:10:43.509Z,19.60
2023-02-11T18:13:51.381Z,20.00
2023-02-11T18:16:54.838Z,16.60
2023-02-11T18:19:58.348Z,22.07
2023-02-11T18:23:01.040Z,15.43
2023-02-11T18:26:08.039Z,16.70
2023-02-11T18:29:11.011Z,15.93
2023-02-11T18:32:14.395Z,17.43
2023-02-11T18:35:17.272Z,16.50
2023-02-11T18:38:20.185Z,16.10
2023-02-11T18:41:24.604Z,15.27
2023-02-11T18:44:28.053Z,16.93
2023-02-11T18:47:32.370Z,19.23
2023-02-11T18:50:35.037Z,16.53
2023-02-11T18:53:37.774Z,17.80
2023-02-11T18:56:41.935Z,21.17
2023-02-11T18:59:44.697Z,16.23
2023-02-11T19:02:47.340Z,17.87
2023-02-11T19:05:51.169Z,20.23
2023-02-11T19:08:55.506Z,20.30
2023-02-11T19:12:01.921Z,19.80
2023-02-11T19:15:05.082Z,21.97
2023-02-11T19:18:07.795Z,19.97
2023-02-11T19:21:11.917Z,20.80
2023-02-11T19:24:18.819Z,21.17
2023-02-11T19:27:22.847Z,18.20
2023-02-11T19:30:25.554Z,17.47
2023-02-11T19:33:28.421Z,21.30
2023-02-11T19:36:31.172Z,18.43
2023-02-11T19:39:35.534Z,18.43
2023-02-11T19:42:40.004Z,17.73
2023-02-11T19:45:42.653Z,16.63
2023-02-11T19:48:45.354Z,20.77
2023-02-11T19:51:47.973Z,17.03
2023-02-11T19:54:50.623Z,16.47
2023-02-11T19:57:54.600Z,16.80
2023-02-11T20:01:06.299Z,21.47
2023-02-11T20:04:13.148Z,18.77
2023-02-11T20:07:15.876Z,22.20
2023-02-11T20:10:18.816Z,23.90
2023-02-11T20:13:22.830Z,21.97
2023-02-11T20:16:44.675Z,22.47
2023-02-11T20:19:49.486Z,19.70
2023-02-11T20:22:55.328Z,25.13
2023-02-11T20:25:58.029Z,20.97
2023-02-11T20:29:03.356Z,22.13
2023-02-11T20:32:06.655Z,20.47
2023-02-11T20:35:10.803Z,23.90
2023-02-11T20:38:13.673Z,18.23
2023-02-11T20:41:18.723Z,24.37
2023-02-11T20:44:23.314Z,20.57
2023-02-11T20:47:26.017Z,22.63
2023-02-11T20:50:29.637Z,19.93
2023-02-11T20:53:34.826Z,22.37
2023-02-11T20:56:39.471Z,21.93
2023-02-11T20:59:43.736Z,21.80
2023-02-11T21:02:46.797Z,20.63
2023-02-11T21:05:49.657Z,24.13
2023-02-11T21:08:52.510Z,24.80
2023-02-11T21:11:55.824Z,24.97
2023-02-11T21:14:59.883Z,26.33
2023-02-11T21:18:02.556Z,25.27
2023-02-11T21:21:06.989Z,24.00
2023-02-11T21:24:10.723Z,23.13
2023-02-11T21:27:13.489Z,23.17
2023-02-11T21:30:52.843Z,19.83
2023-02-11T21:34:12.620Z,21.20
2023-02-11T21:37:17.539Z,22.93
2023-02-11T21:40:23.226Z,19.57
2023-02-11T21:43:25.904Z,27.00
2023-02-11T21:46:30.865Z,21.47
2023-02-11T21:49:33.803Z,18.90
2023-02-11T21:52:36.568Z,19.43
2023-02-11T21:55:40.533Z,19.27
2023-02-11T21:58:43.620Z,23.60
2023-02-11T22:01:47.637Z,25.47
2023-02-11T22:04:56.108Z,19.10
2023-02-11T22:07:58.897Z,23.07
2023-02-11T22:11:03.991Z,22.67
2023-02-11T22:14:07.116Z,23.87
2023-02-11T22:17:11.560Z,20.67
2023-02-11T22:20:16.100Z,19.47
2023-02-11T22:23:18.829Z,19.00
2023-02-11T22:26:26.815Z,20.73
2023-02-11T22:29:34.270Z,21.53
2023-02-11T22:32:42.525Z,17.63
2023-02-11T22:35:45.183Z,18.53
2023-02-11T22:38:48.113Z,21.53
2023-02-11T22:41:50.843Z,23.33
2023-02-11T22:44:53.899Z,21.67
2023-02-11T22:48:00.118Z,18.50
2023-02-11T22:51:13.074Z,20.07
2023-02-11T22:54:19.308Z,18.70
2023-02-11T22:57:22.325Z,19.27
2023-02-11T23:00:27.251Z,18.47
2023-02-11T23:03:31.751Z,18.37
2023-02-11T23:06:35.287Z,20.50
2023-02-11T23:09:38.266Z,21.27
2023-02-11T23:12:40.967Z,24.53
2023-02-11T23:15:45.473Z,16.87
2023-02-11T23:18:50.418Z,22.03
2023-02-11T23:21:53.665Z,22.13
2023-02-11T23:24:56.756Z,21.63
2023-02-11T23:27:59.600Z,19.80
2023-02-11T23:31:02.616Z,21.63
2023-02-11T23:34:07.102Z,22.87
2023-02-11T23:37:09.759Z,20.00
2023-02-11T23:40:13.807Z,21.80
2023-02-11T23:43:16.792Z,22.67
2023-02-11T23:46:21.783Z,23.13
2023-02-11T23:49:26.531Z,23.43
2023-02-11T23:53:07.355Z,27.53
